Latest Weather Observations for Maningrida Airport

IDD60801

Issued at 12:31 pm CST Tuesday 4 August 2015 (issued every 30 minutes, with the page automatically refreshed every 10 minutes)

About weather observations | Map of weather stations | Latest weather observations for NT | Other Formats
Station Details ID: 014405 Name: MANINGRIDA AIRPORT Lat: -12.06 Lon: 134.23 Height: 28.1 m
Data from the previous 72 hours. | See also: Recent months at Maningrida Airport
Date/Time
CST
Temp
°C
App
Temp
°C
Dew
Point
Rel
Hum
%
Delta-T
°C
Wind Press
QNH
hPa
Press
MSL
hPa
Rain
since 9 am
mm
Dir
 
Spd
km/h
Gust
km/h
Spd
kts
Gust
kts
04/12:30pm 29.5 26.3 12.0 34 10.2 ENE 20 33 11 18 1014.8 1014.6 0.0
04/12:00pm 28.7 25.3 13.8 40 8.9 NE 24 39 13 21 1015.3 1015.1 0.0
04/11:30am 28.5 24.5 14.0 41 8.7 ENE 28 41 15 22 1015.8 1015.6 0.0
04/11:00am 27.4 24.0 14.8 46 7.6 ENE 26 37 14 20 1016.3 1016.1 0.0
04/10:30am 26.1 23.2 15.2 51 6.6 ENE 24 43 13 23 1016.5 1016.3 0.0
04/10:00am 25.0 22.9 16.2 58 5.4 ENE 22 35 12 19 1016.8 1016.6 0.0
04/09:30am 23.1 21.7 16.9 68 3.8 ENE 20 30 11 16 1016.9 1016.7 0.0
04/09:09am 21.9 19.9 17.3 75 2.8 ENE 24 32 13 17 1017.0 1016.8 0.0
04/09:00am 21.3 19.6 17.3 78 2.5 ENE 22 30 12 16 1017.0 1016.8 0.0
04/08:30am 19.4 16.5 17.0 86 1.5 ENE 28 37 15 20 1016.8 1016.6 0.0
04/08:26am 19.5 17.4 17.1 86 1.5 ENE 24 37 13 20 1016.9 1016.7 0.0
04/08:00am 20.0 18.9 17.2 84 1.7 ENE 19 26 10 14 1016.3 1016.1 0.0
04/07:30am 19.5 19.2 17.3 87 1.3 ENE 15 20 8 11 1016.0 1015.8 0.0
04/07:00am 18.3 18.4 17.5 95 0.5 ENE 13 20 7 11 1015.8 1015.6 0.0
04/06:30am 17.1 17.8 16.1 94 0.6 E 7 9 4 5 1015.4 1015.2 0.0
04/06:00am 18.6 19.4 17.4 93 0.7 ENE 9 13 5 7 1014.9 1014.7 0.0
04/05:30am 18.1 18.2 16.6 91 0.9 ENE 11 13 6 7 1014.8 1014.6 0.0
04/05:00am 18.4 18.2 16.7 90 1.0 ENE 13 15 7 8 1014.6 1014.4 0.0
04/04:30am 18.3 18.4 16.6 90 1.0 ENE 11 15 6 8 1014.5 1014.3 0.0
04/04:00am 17.4 17.8 15.2 87 1.3 ENE 7 9 4 5 1014.5 1014.3 0.0
04/03:30am 18.5 18.6 15.6 83 1.7 ENE 9 11 5 6 1014.7 1014.5 0.0
04/03:00am 19.2 19.4 15.7 80 2.1 ENE 9 11 5 6 1014.7 1014.5 0.0
04/02:30am 20.4 20.4 16.2 77 2.5 NE 11 15 6 8 1014.6 1014.4 0.0
04/02:00am 20.7 20.4 15.5 72 3.1 NE 11 15 6 8 1014.7 1014.5 0.0
04/01:30am 20.8 20.4 15.1 70 3.4 NE 11 15 6 8 1015.0 1014.8 0.0
04/01:00am 21.7 20.8 14.8 65 4.1 NE 13 17 7 9 1015.2 1015.0 0.0
04/12:30am 20.7 19.8 14.8 69 3.5 ENE 13 13 7 7 1015.8 1015.6 0.0
04/12:00am 21.1 21.0 15.9 72 3.1 ENE 11 13 6 7 1015.8 1015.6 0.0
 
Date/Time
CST
Temp
°C
App
Temp
°C
Dew
Point
Rel
Hum
%
Delta-T
°C
Wind Press
QNH
hPa
Press
MSL
hPa
Rain
since 9 am
mm
Dir
 
Spd
km/h
Gust
km/h
Spd
kts
Gust
kts
03/11:30pm 21.5 21.5 17.1 76 2.7 ENE 13 15 7 8 1015.7 1015.5 0.0
03/11:00pm 22.1 22.6 18.3 79 2.4 NE 13 15 7 8 1015.7 1015.5 0.0
03/10:30pm 21.9 23.8 19.8 88 1.3 NE 9 13 5 7 1015.7 1015.5 0.0
03/10:00pm 22.2 24.6 20.1 88 1.4 ENE 7 9 4 5 1015.6 1015.4 0.0
03/09:30pm 23.0 25.5 20.3 85 1.7 NE 7 9 4 5 1015.6 1015.4 0.0
03/09:00pm 23.7 26.4 20.6 83 2.0 NE 7 11 4 6 1015.4 1015.2 0.0
03/08:30pm 24.1 26.4 20.6 81 2.3 NE 9 11 5 6 1015.2 1015.0 0.0
03/08:00pm 24.5 26.4 20.6 79 2.5 NNE 11 15 6 8 1014.9 1014.7 0.0
03/07:30pm 24.7 26.6 20.6 78 2.7 NNE 11 15 6 8 1014.6 1014.4 0.0
03/07:00pm 24.9 26.4 20.6 77 2.8 NNE 13 20 7 11 1014.2 1014.0 0.0
03/06:30pm 25.4 26.6 20.0 72 3.5 NNE 13 19 7 10 1013.8 1013.6 0.0
03/06:00pm 26.7 27.2 18.3 60 5.3 NNE 13 19 7 10 1013.6 1013.4 0.0
03/05:30pm 27.7 28.0 17.8 54 6.3 NNE 13 20 7 11 1013.4 1013.2 0.0
03/05:00pm 28.4 28.3 17.9 53 6.7 NNE 15 20 8 11 1013.3 1013.1 0.0
03/04:30pm 29.0 28.9 17.8 50 7.1 NNE 15 24 8 13 1013.2 1013.0 0.0
03/04:00pm 29.3 28.9 17.2 48 7.6 NNE 15 20 8 11 1013.2 1013.0 0.0
03/03:30pm 29.7 28.8 16.8 45 8.1 NNE 17 20 9 11 1013.3 1013.1 0.0
03/03:00pm 29.4 28.5 16.9 47 7.9 NNE 17 24 9 13 1013.5 1013.3 0.0
03/02:30pm 29.3 27.7 17.5 49 7.5 NNE 22 33 12 18 1013.9 1013.7 0.0
03/02:00pm 29.7 28.8 16.8 45 8.1 NNE 17 28 9 15 1014.2 1014.0 0.0
03/01:30pm 29.5 28.7 17.0 47 7.9 NNE 17 28 9 15 1014.9 1014.7 0.0
03/01:00pm 28.4 27.0 17.0 50 7.2 NNE 20 32 11 17 1015.2 1015.0 0.0
03/12:30pm 29.0 27.9 17.2 49 7.4 NNE 19 28 10 15 1015.6 1015.4 0.0
03/12:00pm 28.8 26.9 15.7 45 8.1 NNE 20 32 11 17 1016.0 1015.8 0.0
03/11:30am 28.9 26.7 14.3 40 8.8 NE 19 26 10 14 1016.4 1016.2 0.0
03/11:00am 29.3 27.2 13.5 38 9.4 NE 17 24 9 13 1016.6 1016.4 0.0
03/10:30am 27.4 26.1 14.8 46 7.6 NE 15 20 8 11 1016.6 1016.4 0.0
03/10:00am 26.6 26.8 17.7 58 5.6 NE 13 17 7 9 1016.8 1016.6 0.0
03/09:30am 24.3 25.1 19.1 73 3.3 NE 13 17 7 9 1016.8 1016.6 0.0
03/09:25am 23.7 24.2 19.2 76 2.9 NE 15 19 8 10 1016.8 1016.6 0.0
03/09:00am 22.5 23.1 19.5 83 1.9 NE 15 20 8 11 1016.7 1016.5 0.0
03/08:30am 21.4 21.5 19.1 87 1.5 ENE 17 20 9 11 1016.5 1016.3 0.0
03/08:22am 21.3 21.7 18.9 86 1.5 NE 15 19 8 10 1016.4 1016.2 0.0
03/08:00am 20.6 22.4 18.7 89 1.2 ENE 7 11 4 6 1016.3 1016.1 0.0
03/07:30am 18.6 20.1 18.1 97 0.3 E 7 9 4 5 1015.9 1015.7 0.0
03/07:00am 17.3 19.5 16.5 95 0.5 CALM 0 0 0 0 1015.7 1015.5 0.0
03/06:30am 17.7 18.8 17.1 96 0.4 E 7 11 4 6 1015.4 1015.2 0.0
03/06:00am 18.1 19.0 17.6 97 0.3 E 9 11 5 6 1015.2 1015.0 0.0
03/05:30am 17.9 19.9 16.9 94 0.6 E 2 7 1 4 1015.0 1014.8 0.0
03/05:00am 18.8 21.5 17.8 94 0.6 CALM 0 0 0 0 1014.8 1014.6 0.0
03/04:30am 18.8 20.3 17.5 92 0.8 E 6 7 3 4 1014.8 1014.6 0.0
03/04:00am 19.3 20.4 18.1 93 0.7 E 9 11 5 6 1014.9 1014.7 0.0
03/03:30am 19.4 21.6 17.4 88 1.2 E 2 7 1 4 1015.2 1015.0 0.0
03/03:00am 20.4 21.8 17.4 83 1.8 E 6 7 3 4 1015.5 1015.3 0.0
03/02:30am 21.9 22.8 17.5 76 2.7 ENE 9 11 5 6 1015.6 1015.4 0.0
03/02:00am 22.6 22.8 17.7 74 3.0 NE 13 20 7 11 1015.7 1015.5 0.0
03/01:30am 22.7 23.0 18.0 75 2.9 ENE 13 17 7 9 1015.8 1015.6 0.0
03/01:00am 23.3 23.5 18.6 75 3.0 NE 15 19 8 10 1015.9 1015.7 0.0
03/12:30am 23.6 24.8 19.1 76 2.9 NE 11 15 6 8 1016.1 1015.9 0.0
03/12:00am 23.8 25.0 19.1 75 3.0 NE 11 15 6 8 1016.1 1015.9 0.0
 
Date/Time
CST
Temp
°C
App
Temp
°C
Dew
Point
Rel
Hum
%
Delta-T
°C
Wind Press
QNH
hPa
Press
MSL
hPa
Rain
since 9 am
mm
Dir
 
Spd
km/h
Gust
km/h
Spd
kts
Gust
kts
02/11:30pm 23.9 25.2 19.2 75 3.0 NE 11 15 6 8 1016.2 1016.0 0.0
02/11:00pm 23.9 25.2 19.2 75 3.0 NE 11 15 6 8 1016.1 1015.9 0.0
02/10:30pm 24.0 24.8 19.1 74 3.1 NE 13 19 7 10 1015.9 1015.7 0.0
02/10:00pm 24.0 25.0 19.5 76 2.9 NE 13 17 7 9 1015.8 1015.6 0.0
02/09:30pm 24.1 25.3 19.8 77 2.8 NNE 13 19 7 10 1015.7 1015.5 0.0
02/09:00pm 24.5 25.8 19.3 73 3.3 NE 11 19 6 10 1015.3 1015.1 0.0
02/08:30pm 24.9 26.7 19.5 72 3.5 NE 9 11 5 6 1014.9 1014.7 0.0
02/08:00pm 25.0 27.1 19.4 71 3.6 NNE 7 13 4 7 1014.7 1014.5 0.0
02/07:30pm 25.4 27.6 19.3 69 3.9 NNE 6 7 3 4 1014.4 1014.2 0.0
02/07:00pm 25.5 27.5 19.2 68 4.0 NE 7 11 4 6 1014.2 1014.0 0.0
02/06:30pm 25.8 27.0 19.0 66 4.4 NE 11 15 6 8 1013.9 1013.7 0.0
02/06:00pm 26.3 26.8 19.2 65 4.6 NE 15 22 8 12 1013.8 1013.6 0.0
02/05:30pm 26.8 28.1 19.2 63 4.9 NE 11 17 6 9 1013.8 1013.6 0.0
02/05:00pm 26.9 27.5 19.5 64 4.8 NE 15 20 8 11 1013.7 1013.5 0.0
02/04:30pm 26.6 26.9 19.5 65 4.6 NE 17 26 9 14 1013.9 1013.7 0.0
02/04:00pm 26.7 26.1 18.8 62 5.1 NNE 20 28 11 15 1013.9 1013.7 0.0
02/03:30pm 25.7 25.7 18.9 66 4.3 NNE 17 26 9 14 1014.1 1013.9 0.0
02/03:00pm 25.8 25.8 20.1 71 3.7 NNE 20 32 11 17 1014.4 1014.2 0.0
02/02:30pm 25.1 25.0 19.9 73 3.4 NNE 20 30 11 16 1014.7 1014.5 0.0
02/02:00pm 25.9 25.7 19.3 67 4.2 NNE 19 28 10 15 1014.9 1014.7 0.0
02/01:30pm 27.7 26.8 18.1 56 6.1 NNE 20 30 11 16 1015.0 1014.8 0.0
02/01:00pm 28.5 27.3 17.1 50 7.2 NNE 19 26 10 14 1015.2 1015.0 0.0
02/12:30pm 29.1 27.9 17.0 48 7.6 NNE 19 28 10 15 1015.6 1015.4 0.0
02/12:00pm 28.4 27.7 17.3 51 7.0 NNE 17 24 9 13 1015.9 1015.7 0.0
02/11:30am 28.4 27.3 17.3 51 7.0 NNE 19 26 10 14 1016.3 1016.1 0.0
02/11:00am 28.1 26.6 16.7 50 7.1 NNE 20 32 11 17 1016.4 1016.2 0.0
02/10:30am 27.3 26.3 17.5 55 6.2 NE 19 33 10 18 1016.7 1016.5 0.0
02/10:00am 26.8 27.2 18.1 59 5.5 NNE 13 20 7 11 1016.9 1016.7 0.0
02/09:30am 25.8 25.8 18.2 63 4.8 NE 15 22 8 12 1017.0 1016.8 0.0
02/09:00am 24.6 24.6 18.1 67 4.1 NE 15 22 8 12 1017.0 1016.8 0.0
02/08:30am 23.5 23.0 17.9 71 3.5 NE 17 22 9 12 1016.8 1016.6 0.0
02/08:00am 22.3 22.0 18.3 78 2.5 NE 17 24 9 13 1016.6 1016.4 0.0
02/07:30am 20.8 20.8 18.2 85 1.6 ENE 15 17 8 9 1016.3 1016.1 0.0
02/07:00am 19.9 20.3 18.2 90 1.1 ENE 13 17 7 9 1015.9 1015.7 0.0
02/06:30am 20.0 20.4 18.1 89 1.2 ENE 13 17 7 9 1015.8 1015.6 0.0
02/06:00am 20.2 20.9 18.0 87 1.4 ENE 11 15 6 8 1015.6 1015.4 0.0
02/05:30am 20.2 20.5 17.8 86 1.5 ENE 13 15 7 8 1015.3 1015.1 0.0
02/05:00am 20.6 20.4 17.6 83 1.8 ENE 15 19 8 10 1015.1 1014.9 0.0
02/04:30am 21.4 20.7 17.4 78 2.5 NE 17 20 9 11 1014.9 1014.7 0.0
02/04:00am 21.4 20.5 17.8 80 2.2 NE 19 24 10 13 1014.7 1014.5 0.0
02/03:30am 20.7 20.2 17.9 84 1.7 NE 17 22 9 12 1014.6 1014.4 0.0
02/03:00am 20.7 20.2 17.7 83 1.8 NE 17 20 9 11 1014.6 1014.4 0.0
02/02:30am 20.9 20.2 17.3 80 2.2 NE 17 22 9 12 1014.7 1014.5 0.0
02/02:00am 21.1 20.6 16.9 77 2.6 NE 15 24 8 13 1014.8 1014.6 0.0
02/01:30am 21.1 21.0 16.9 77 2.6 NE 13 19 7 10 1014.8 1014.6 0.0
02/01:00am 21.3 21.7 17.3 78 2.5 NE 11 15 6 8 1014.9 1014.7 0.0
02/12:30am 21.6 22.8 18.2 81 2.1 NE 9 13 5 7 1014.9 1014.7 0.0
02/12:00am 21.3 23.0 19.4 89 1.2 NE 9 13 5 7 1014.9 1014.7 0.0
 
Date/Time
CST
Temp
°C
App
Temp
°C
Dew
Point
Rel
Hum
%
Delta-T
°C
Wind Press
QNH
hPa
Press
MSL
hPa
Rain
since 9 am
mm
Dir
 
Spd
km/h
Gust
km/h
Spd
kts
Gust
kts
01/11:30pm 21.5 23.6 20.1 92 0.9 NE 9 11 5 6 1015.1 1014.9 0.0
01/11:00pm 21.6 24.0 20.1 91 1.0 ENE 7 11 4 6 1015.1 1014.9 0.0
01/10:30pm 21.9 23.9 20.0 89 1.2 ENE 9 9 5 5 1015.0 1014.8 0.0
01/10:00pm 22.5 25.0 19.9 85 1.7 NE 6 9 3 5 1014.8 1014.6 0.0
01/09:30pm 23.3 26.2 20.6 85 1.8 NNE 6 7 3 4 1014.5 1014.3 0.0
01/09:00pm 23.5 26.4 20.6 84 1.9 NNE 6 9 3 5 1014.1 1013.9 0.0
01/08:30pm 23.7 26.5 20.4 82 2.1 NNE 6 9 3 5 1013.9 1013.7 0.0
01/08:00pm 23.8 26.3 20.3 81 2.3 NNE 7 9 4 5 1013.6 1013.4 0.0
01/07:30pm 24.1 26.6 20.2 79 2.5 NNE 7 9 4 5 1013.2 1013.0 0.0
01/07:00pm 24.6 26.9 19.9 75 3.0 NNE 7 9 4 5 1012.9 1012.7 0.0
01/06:30pm 25.3 27.2 19.7 71 3.6 NNE 9 11 5 6 1012.7 1012.5 0.0
01/06:00pm 26.3 27.3 19.4 66 4.5 NNE 13 17 7 9 1012.7 1012.5 0.0
01/05:30pm 26.8 27.3 19.2 63 4.9 NNE 15 20 8 11 1012.5 1012.3 0.0
01/05:00pm 27.3 27.1 18.6 59 5.6 NNE 17 22 9 12 1012.2 1012.0 0.0
01/04:30pm 28.5 28.1 18.0 53 6.7 NNE 17 22 9 12 1012.2 1012.0 0.0
01/04:00pm 28.4 28.6 18.5 55 6.3 NNE 15 22 8 12 1012.2 1012.0 0.0
01/03:30pm 28.6 29.4 19.8 59 5.8 NNE 15 24 8 13 1012.3 1012.1 0.0
01/03:00pm 28.3 28.6 19.5 59 5.7 NNE 17 26 9 14 1012.7 1012.5 0.0
01/02:30pm 28.8 28.8 18.0 52 6.9 N 15 20 8 11 1012.9 1012.7 0.0
01/02:00pm 29.4 28.8 17.6 49 7.5 NNE 17 24 9 13 1013.3 1013.1 0.0
01/01:30pm 28.8 27.4 17.0 49 7.4 NNE 20 32 11 17 1013.7 1013.5 0.0
01/01:00pm 30.5 30.0 17.9 47 8.1 NE 17 22 9 12 1014.1 1013.9 0.0

Other Formats:

Comma delimited format used in spreadsheet applications
http://www.bom.gov.au/fwo/IDD60801/IDD60801.95142.axf

JavaScript Object Notation format (JSON) in row-major order
http://www.bom.gov.au/fwo/IDD60801/IDD60801.95142.json